Terminal Aerodrome Forecast
Issued by NWS

Home | Current Version | Previous Version | Text Only | Print | Product List | Glossary Off
Versions: 1 2 3 4 5 6 7 8 9 10 11 12 13 14 15 16 17 18

000
FTUS43 KGRB 010400 AAB
TAFMTW
TAF AMD
KMTW 010438Z 0105/0124 04010G20KT 6SM -SN OVC018
     FM010900 03012G20KT 5SM -SN OVC028
      TEMPO 0110/0114 2SM -SN OVC010
     FM011400 04014G20KT 3SM -SN OVC020
     FM012200 03015G20KT 6SM -SN OVC025=

USA.gov is the U.S. government's official web portal to all federal, state and local government web resources and services.